createdAt,value
2018-08-24T00:01:25.195Z,29.13
2018-08-24T00:03:51.137Z,29.11
2018-08-24T00:06:17.061Z,29.30
2018-08-24T00:08:43.027Z,29.29
2018-08-24T00:11:08.989Z,29.03
2018-08-24T00:13:34.966Z,28.58
2018-08-24T00:16:00.923Z,28.87
2018-08-24T00:18:26.879Z,29.19
2018-08-24T00:20:52.812Z,29.09
2018-08-24T00:23:18.776Z,29.14
2018-08-24T00:25:44.706Z,28.97
2018-08-24T00:28:10.647Z,29.14
2018-08-24T00:30:36.601Z,29.14
2018-08-24T00:33:02.537Z,29.09
2018-08-24T00:35:28.473Z,29.20
2018-08-24T00:37:54.410Z,29.10
2018-08-24T00:40:20.340Z,28.77
2018-08-24T00:42:46.336Z,28.36
2018-08-24T00:45:12.240Z,28.66
2018-08-24T00:47:38.210Z,29.08
2018-08-24T00:50:04.172Z,29.19
2018-08-24T00:52:30.147Z,29.19
2018-08-24T00:54:56.095Z,29.06
2018-08-24T00:57:22.213Z,29.23
2018-08-24T00:59:48.160Z,29.15
2018-08-24T01:02:14.136Z,29.16
2018-08-24T01:04:40.092Z,29.00
2018-08-24T01:07:06.287Z,28.84
2018-08-24T01:09:32.238Z,28.82
2018-08-24T01:11:58.245Z,28.71
2018-08-24T01:14:24.180Z,28.78
2018-08-24T01:16:50.144Z,28.53
2018-08-24T01:19:16.084Z,28.63
2018-08-24T01:21:42.037Z,28.64
2018-08-24T01:24:07.988Z,28.48
2018-08-24T01:26:33.945Z,28.46
2018-08-24T01:28:59.890Z,28.54
2018-08-24T01:31:25.860Z,28.65
2018-08-24T01:33:51.837Z,28.72
2018-08-24T01:36:17.787Z,28.58
2018-08-24T01:38:43.752Z,28.68
2018-08-24T01:41:09.717Z,28.26
2018-08-24T01:43:35.658Z,28.49
2018-08-24T01:46:01.601Z,28.64
2018-08-24T01:48:27.541Z,28.68
2018-08-24T01:50:53.518Z,28.55
2018-08-24T01:53:19.483Z,28.63
2018-08-24T01:55:45.437Z,28.61
2018-08-24T01:58:11.432Z,28.70
2018-08-24T02:00:37.389Z,28.56
2018-08-24T02:03:03.339Z,28.67
2018-08-24T02:05:29.287Z,28.40
2018-08-24T02:07:55.228Z,28.42
2018-08-24T02:10:21.180Z,28.32
2018-08-24T02:12:47.140Z,28.48
2018-08-24T02:15:13.092Z,28.54
2018-08-24T02:17:39.056Z,28.53
2018-08-24T02:20:05.021Z,28.51
2018-08-24T02:22:30.980Z,28.17
2018-08-24T02:24:56.928Z,28.37
2018-08-24T02:27:22.880Z,28.64
2018-08-24T02:29:48.831Z,28.76
2018-08-24T02:32:14.782Z,28.52
2018-08-24T02:34:40.739Z,28.43
2018-08-24T02:37:06.681Z,28.42
2018-08-24T02:39:32.665Z,28.44
2018-08-24T02:41:58.642Z,28.49
2018-08-24T02:44:24.604Z,28.39
2018-08-24T02:46:50.825Z,27.97
2018-08-24T02:49:16.809Z,28.04
2018-08-24T02:51:42.741Z,28.16
2018-08-24T02:54:08.718Z,28.12
2018-08-24T02:56:34.673Z,28.13
2018-08-24T02:59:00.644Z,28.41
2018-08-24T03:01:26.600Z,28.23
2018-08-24T03:03:52.569Z,28.36
2018-08-24T03:06:18.504Z,28.35
2018-08-24T03:08:44.487Z,28.50
2018-08-24T03:11:10.428Z,28.54
2018-08-24T03:13:36.505Z,28.49
2018-08-24T03:16:02.492Z,28.30
2018-08-24T03:18:28.465Z,28.48
2018-08-24T03:20:54.415Z,28.34
2018-08-24T03:23:20.385Z,27.97
2018-08-24T03:25:46.316Z,28.09
2018-08-24T03:28:12.282Z,28.13
2018-08-24T03:30:38.264Z,28.02
2018-08-24T03:33:04.236Z,27.89
2018-08-24T03:35:30.192Z,27.80
2018-08-24T03:37:56.165Z,28.02
2018-08-24T03:40:22.127Z,28.08
2018-08-24T03:42:48.107Z,27.89
2018-08-24T03:45:14.070Z,27.89
2018-08-24T03:47:40.016Z,27.69
2018-08-24T03:50:05.983Z,27.61
2018-08-24T03:52:31.935Z,27.30
2018-08-24T03:54:58.003Z,27.57
2018-08-24T03:57:23.964Z,27.94
2018-08-24T03:59:50.960Z,28.03
2018-08-24T04:02:16.912Z,27.90
2018-08-24T04:04:42.886Z,28.04
2018-08-24T04:07:08.847Z,28.06
2018-08-24T04:09:34.792Z,28.03
2018-08-24T04:12:00.756Z,27.90
2018-08-24T04:14:26.742Z,27.96
2018-08-24T04:16:52.778Z,28.12
2018-08-24T04:19:18.795Z,27.94
2018-08-24T04:21:44.935Z,27.75
2018-08-24T04:24:10.889Z,27.55
2018-08-24T04:26:36.836Z,27.58
2018-08-24T04:29:02.783Z,27.63
2018-08-24T04:31:28.754Z,27.65
2018-08-24T04:33:54.710Z,27.63
2018-08-24T04:36:20.667Z,27.70
2018-08-24T04:38:46.610Z,27.95
2018-08-24T04:41:12.549Z,28.26
2018-08-24T04:43:38.541Z,28.18
2018-08-24T04:46:04.498Z,28.26
2018-08-24T04:48:30.469Z,28.52
2018-08-24T04:50:56.431Z,28.29
2018-08-24T04:53:22.361Z,28.34
2018-08-24T04:55:48.300Z,28.49
2018-08-24T04:58:15.165Z,28.47
2018-08-24T05:00:41.100Z,28.64
2018-08-24T05:03:08.082Z,28.90
2018-08-24T05:05:34.064Z,28.68
2018-08-24T05:08:00.012Z,28.65
2018-08-24T05:10:25.969Z,28.66
2018-08-24T05:12:51.944Z,28.42
2018-08-24T05:15:17.900Z,28.27
2018-08-24T05:17:43.857Z,28.53
2018-08-24T05:20:09.794Z,28.83
2018-08-24T05:22:35.755Z,28.98
2018-08-24T05:25:01.715Z,28.82
2018-08-24T05:27:27.677Z,29.03
2018-08-24T05:29:53.627Z,28.96
2018-08-24T05:32:19.610Z,29.03
2018-08-24T05:34:45.580Z,29.13
2018-08-24T05:37:11.545Z,29.15
2018-08-24T05:39:37.474Z,29.28
2018-08-24T05:42:03.415Z,29.30
2018-08-24T05:44:29.396Z,29.35
2018-08-24T05:46:55.349Z,29.34
2018-08-24T05:49:21.292Z,29.41
2018-08-24T05:51:47.254Z,29.44
2018-08-24T05:54:13.233Z,29.47
2018-08-24T05:56:39.203Z,29.49
2018-08-24T05:59:05.137Z,29.54
2018-08-24T06:01:31.061Z,29.51
2018-08-24T06:03:57.024Z,29.55
2018-08-24T06:06:22.974Z,29.58
2018-08-24T06:08:48.907Z,29.56
2018-08-24T06:11:14.871Z,29.54
2018-08-24T06:13:40.868Z,29.61
2018-08-24T06:16:06.829Z,29.49
2018-08-24T06:18:32.806Z,29.43
2018-08-24T06:20:58.780Z,29.48
2018-08-24T06:23:24.743Z,29.30
2018-08-24T06:25:50.708Z,29.47
2018-08-24T06:28:16.656Z,29.14
2018-08-24T06:30:42.605Z,29.52
2018-08-24T06:33:08.535Z,29.50
2018-08-24T06:35:34.518Z,29.56
2018-08-24T06:38:00.454Z,29.55
2018-08-24T06:40:26.398Z,29.64
2018-08-24T06:42:52.385Z,29.66
2018-08-24T06:45:18.531Z,29.78
2018-08-24T06:47:44.589Z,29.58
2018-08-24T06:50:10.505Z,29.76
2018-08-24T06:52:36.452Z,29.93
2018-08-24T06:55:02.432Z,29.98
2018-08-24T06:57:28.380Z,30.52
2018-08-24T06:59:54.351Z,30.60
2018-08-24T07:02:20.314Z,30.76
2018-08-24T07:04:46.253Z,30.70
2018-08-24T07:07:12.220Z,30.65
2018-08-24T07:09:38.216Z,30.84
2018-08-24T07:12:04.184Z,30.53
2018-08-24T07:14:30.170Z,30.56
2018-08-24T07:16:56.153Z,30.44
2018-08-24T07:19:22.109Z,30.75
2018-08-24T07:21:48.054Z,30.82
2018-08-24T07:24:13.988Z,30.78
2018-08-24T07:26:39.930Z,30.45
2018-08-24T07:29:05.942Z,30.35
2018-08-24T07:31:31.888Z,30.13
2018-08-24T07:33:57.867Z,30.05
2018-08-24T07:36:23.811Z,30.15
2018-08-24T07:38:49.822Z,30.10
2018-08-24T07:41:15.794Z,30.34
2018-08-24T07:43:41.739Z,29.95
2018-08-24T07:46:08.374Z,29.86
2018-08-24T07:48:34.322Z,30.41
2018-08-24T07:51:00.295Z,30.71
2018-08-24T07:53:26.304Z,30.04
2018-08-24T07:55:52.261Z,30.36
2018-08-24T07:58:18.213Z,30.56
2018-08-24T08:00:44.180Z,30.86
2018-08-24T08:03:11.194Z,31.26
2018-08-24T08:05:37.146Z,31.60
2018-08-24T08:08:03.092Z,31.67
2018-08-24T08:10:29.065Z,31.43
2018-08-24T08:12:55.023Z,31.62
2018-08-24T08:15:21.000Z,32.10
2018-08-24T08:17:46.952Z,31.50
2018-08-24T08:20:12.916Z,31.15
2018-08-24T08:22:38.864Z,31.16
2018-08-24T08:25:04.823Z,31.54
2018-08-24T08:27:30.772Z,31.86
2018-08-24T08:29:56.711Z,31.59
2018-08-24T08:32:22.667Z,32.73
2018-08-24T08:34:48.631Z,31.96
2018-08-24T08:37:14.597Z,32.52
2018-08-24T08:39:40.559Z,32.04
2018-08-24T08:42:06.534Z,31.51
2018-08-24T08:44:32.520Z,31.36
2018-08-24T08:46:58.478Z,31.28
2018-08-24T08:49:24.440Z,31.24
2018-08-24T08:51:50.407Z,31.01
2018-08-24T08:54:16.373Z,31.04
2018-08-24T08:56:42.333Z,31.14
2018-08-24T08:59:08.300Z,31.12
2018-08-24T09:01:34.262Z,31.11
2018-08-24T09:04:00.289Z,30.96
2018-08-24T09:06:26.267Z,30.98
2018-08-24T09:08:52.232Z,30.92
2018-08-24T09:11:18.189Z,30.74
2018-08-24T09:13:44.160Z,30.59
2018-08-24T09:16:10.104Z,30.91
2018-08-24T09:18:36.113Z,30.85
2018-08-24T09:21:01.978Z,30.75
2018-08-24T09:23:27.915Z,30.52
2018-08-24T09:25:53.861Z,30.65
2018-08-24T09:28:19.803Z,30.59
2018-08-24T09:30:45.761Z,30.39
2018-08-24T09:33:11.720Z,30.67
2018-08-24T09:35:37.695Z,30.81
2018-08-24T09:38:03.707Z,30.70
2018-08-24T09:40:29.609Z,31.05
2018-08-24T09:42:55.610Z,31.18
2018-08-24T09:45:21.519Z,31.05
2018-08-24T09:47:47.453Z,30.80
2018-08-24T09:50:13.416Z,30.97
2018-08-24T09:52:39.373Z,30.95
2018-08-24T09:55:05.326Z,31.10
2018-08-24T09:57:31.264Z,30.97
2018-08-24T09:59:57.208Z,30.82
2018-08-24T10:02:23.172Z,30.83
2018-08-24T10:04:49.242Z,30.90
2018-08-24T10:07:15.204Z,30.94
2018-08-24T10:09:41.156Z,30.97
2018-08-24T10:12:07.113Z,30.78
2018-08-24T10:14:33.048Z,30.80
2018-08-24T10:16:59.002Z,31.01
2018-08-24T10:19:24.981Z,31.27
2018-08-24T10:21:50.938Z,30.81
2018-08-24T10:24:16.893Z,30.98
2018-08-24T10:26:42.833Z,31.24
2018-08-24T10:29:08.805Z,31.32
2018-08-24T10:31:34.769Z,31.36
2018-08-24T10:34:00.748Z,31.16
2018-08-24T10:36:26.677Z,31.12
2018-08-24T10:38:52.673Z,31.08
2018-08-24T10:41:18.625Z,31.22
2018-08-24T10:43:44.587Z,31.27
2018-08-24T10:46:10.552Z,31.48
2018-08-24T10:48:36.536Z,31.37
2018-08-24T10:51:02.525Z,31.45
2018-08-24T10:53:28.525Z,31.49
2018-08-24T10:55:54.526Z,31.35
2018-08-24T10:58:20.469Z,31.40
2018-08-24T11:00:46.404Z,31.48
2018-08-24T11:03:12.386Z,31.34
2018-08-24T11:05:38.349Z,31.24
2018-08-24T11:08:04.311Z,31.34
2018-08-24T11:10:30.298Z,31.39
2018-08-24T11:12:56.248Z,31.45
2018-08-24T11:15:22.220Z,31.43
2018-08-24T11:17:48.205Z,31.45
2018-08-24T11:20:14.153Z,31.55
2018-08-24T11:22:40.101Z,31.51
2018-08-24T11:25:06.060Z,31.54
2018-08-24T11:27:32.031Z,31.47
2018-08-24T11:29:58.000Z,31.45
2018-08-24T11:32:23.995Z,31.41
2018-08-24T11:34:49.955Z,31.37
2018-08-24T11:37:15.900Z,31.36
2018-08-24T11:39:41.887Z,31.24
2018-08-24T11:42:07.875Z,31.24
2018-08-24T11:44:33.825Z,31.40
2018-08-24T11:46:59.773Z,31.32
2018-08-24T11:49:25.757Z,31.39
2018-08-24T11:51:51.714Z,31.42
2018-08-24T11:54:17.728Z,31.43
2018-08-24T11:56:43.636Z,31.45
2018-08-24T11:59:09.605Z,31.49
2018-08-24T12:01:35.541Z,31.47
2018-08-24T12:04:01.523Z,31.41
2018-08-24T12:06:27.474Z,31.16
2018-08-24T12:08:53.466Z,31.32
2018-08-24T12:11:19.415Z,31.29
2018-08-24T12:13:45.387Z,31.04
2018-08-24T12:16:11.337Z,31.21
2018-08-24T12:18:37.295Z,31.39
2018-08-24T12:21:03.359Z,31.37
2018-08-24T12:23:29.288Z,31.16
2018-08-24T12:25:55.248Z,31.22
2018-08-24T12:28:21.206Z,31.11
2018-08-24T12:30:47.167Z,31.15
2018-08-24T12:33:13.130Z,31.16
2018-08-24T12:35:39.122Z,31.24
2018-08-24T12:38:05.112Z,31.14
2018-08-24T12:40:31.064Z,31.14
2018-08-24T12:42:57.017Z,31.19
2018-08-24T12:45:22.961Z,31.04
2018-08-24T12:47:48.917Z,31.21
2018-08-24T12:50:14.878Z,31.33
2018-08-24T12:52:40.815Z,31.27
2018-08-24T12:55:06.762Z,31.18
2018-08-24T12:57:32.702Z,31.27
2018-08-24T12:59:58.692Z,31.31
2018-08-24T13:02:24.674Z,31.32
2018-08-24T13:04:50.640Z,31.38
2018-08-24T13:07:16.624Z,31.18
2018-08-24T13:09:42.572Z,31.28
2018-08-24T13:12:08.608Z,31.31
2018-08-24T13:14:34.575Z,31.27
2018-08-24T13:17:00.550Z,31.17
2018-08-24T13:19:26.504Z,31.19
2018-08-24T13:21:52.452Z,31.23
2018-08-24T13:24:18.409Z,31.25
2018-08-24T13:26:44.348Z,31.26
2018-08-24T13:29:10.301Z,31.16
2018-08-24T13:31:36.253Z,31.22
2018-08-24T13:34:02.216Z,31.19
2018-08-24T13:36:28.200Z,31.24
2018-08-24T13:38:54.173Z,31.11
2018-08-24T13:41:20.136Z,31.01
2018-08-24T13:43:46.174Z,31.00
2018-08-24T13:46:12.159Z,31.16
2018-08-24T13:48:38.113Z,30.97
2018-08-24T13:51:04.110Z,31.09
2018-08-24T13:53:30.069Z,31.16
2018-08-24T13:55:56.052Z,31.15
2018-08-24T13:58:21.987Z,30.85
2018-08-24T14:00:47.942Z,31.13
2018-08-24T14:03:13.892Z,30.98
2018-08-24T14:05:39.875Z,30.95
2018-08-24T14:08:05.869Z,30.99
2018-08-24T14:10:31.853Z,30.99
2018-08-24T14:12:57.851Z,30.96
2018-08-24T14:15:23.833Z,30.80
2018-08-24T14:17:49.814Z,30.94
2018-08-24T14:20:15.757Z,30.81
2018-08-24T14:22:41.716Z,30.64
2018-08-24T14:25:07.688Z,30.68
2018-08-24T14:27:33.669Z,30.87
2018-08-24T14:29:59.619Z,30.72
2018-08-24T14:32:25.565Z,30.57
2018-08-24T14:34:51.536Z,30.47
2018-08-24T14:37:17.514Z,30.52
2018-08-24T14:39:43.466Z,30.39
2018-08-24T14:42:09.431Z,30.50
2018-08-24T14:44:35.390Z,30.53
2018-08-24T14:47:01.337Z,30.27
2018-08-24T14:49:27.325Z,30.36
2018-08-24T14:51:53.312Z,30.48
2018-08-24T14:54:19.273Z,30.58
2018-08-24T14:56:45.217Z,30.58
2018-08-24T14:59:11.193Z,30.63
2018-08-24T15:01:37.160Z,30.48
2018-08-24T15:04:03.113Z,30.53
2018-08-24T15:06:29.074Z,30.68
2018-08-24T15:08:55.026Z,30.47
2018-08-24T15:11:20.977Z,30.61
2018-08-24T15:13:46.945Z,30.68
2018-08-24T15:16:12.894Z,30.56
2018-08-24T15:18:38.853Z,30.71
2018-08-24T15:21:04.794Z,30.67
2018-08-24T15:23:30.768Z,30.62
2018-08-24T15:25:56.724Z,30.71
2018-08-24T15:28:22.678Z,30.45
2018-08-24T15:30:48.631Z,30.47
2018-08-24T15:33:14.717Z,30.47
2018-08-24T15:35:40.680Z,30.27
2018-08-24T15:38:06.646Z,30.32
2018-08-24T15:40:32.595Z,30.38
2018-08-24T15:42:58.565Z,30.09
2018-08-24T15:45:24.509Z,30.31
2018-08-24T15:47:50.478Z,30.13
2018-08-24T15:50:16.444Z,30.09
2018-08-24T15:52:42.446Z,30.18
2018-08-24T15:55:08.395Z,30.15
2018-08-24T15:57:34.355Z,30.11
2018-08-24T16:00:00.330Z,30.25
2018-08-24T16:02:26.300Z,30.11
2018-08-24T16:04:52.234Z,30.09
2018-08-24T16:07:18.209Z,30.07
2018-08-24T16:09:44.165Z,30.10
2018-08-24T16:12:10.239Z,29.84
2018-08-24T16:14:36.196Z,30.01
2018-08-24T16:17:02.158Z,29.93
2018-08-24T16:19:28.102Z,29.87
2018-08-24T16:21:54.085Z,29.66
2018-08-24T16:24:20.046Z,29.45
2018-08-24T16:26:46.019Z,29.42
2018-08-24T16:29:12.013Z,29.70
2018-08-24T16:31:37.970Z,29.51
2018-08-24T16:34:03.993Z,29.62
2018-08-24T16:36:29.953Z,29.51
2018-08-24T16:38:55.947Z,29.41
2018-08-24T16:41:21.873Z,29.37
2018-08-24T16:43:47.811Z,29.43
2018-08-24T16:46:13.758Z,29.31
2018-08-24T16:48:39.735Z,29.16
2018-08-24T16:51:05.705Z,29.01
2018-08-24T16:53:31.695Z,28.85
2018-08-24T16:55:57.718Z,28.79
2018-08-24T16:58:23.740Z,28.99
2018-08-24T17:00:49.721Z,28.61
2018-08-24T17:03:15.714Z,28.56
2018-08-24T17:05:41.700Z,28.62
2018-08-24T17:08:07.670Z,28.72
2018-08-24T17:10:33.635Z,28.52
2018-08-24T17:12:59.689Z,28.30
2018-08-24T17:15:25.629Z,28.22
2018-08-24T17:17:51.598Z,28.50
2018-08-24T17:20:17.580Z,28.37
2018-08-24T17:22:43.544Z,28.20
2018-08-24T17:25:09.525Z,28.21
2018-08-24T17:27:35.515Z,28.10
2018-08-24T17:30:01.470Z,28.41
2018-08-24T17:32:27.432Z,28.14
2018-08-24T17:34:53.391Z,28.11
2018-08-24T17:37:19.374Z,28.10
2018-08-24T17:39:45.354Z,28.20
2018-08-24T17:42:11.305Z,28.31
2018-08-24T17:44:37.381Z,28.25
2018-08-24T17:47:03.429Z,28.14
2018-08-24T17:49:29.420Z,28.30
2018-08-24T17:51:55.421Z,28.42
2018-08-24T17:54:21.473Z,28.12
2018-08-24T17:56:48.355Z,28.19
2018-08-24T17:59:14.299Z,28.29
2018-08-24T18:01:40.437Z,28.18
2018-08-24T18:04:06.409Z,28.15
2018-08-24T18:06:32.379Z,28.19
2018-08-24T18:08:58.376Z,28.09
2018-08-24T18:11:24.349Z,27.98
2018-08-24T18:13:50.469Z,28.11
2018-08-24T18:16:16.474Z,28.13
2018-08-24T18:18:42.434Z,28.25
2018-08-24T18:21:09.468Z,28.25
2018-08-24T18:23:35.436Z,28.31
2018-08-24T18:26:01.468Z,28.37
2018-08-24T18:28:27.401Z,28.00
2018-08-24T18:30:53.413Z,27.91
2018-08-24T18:33:19.381Z,28.13
2018-08-24T18:35:45.585Z,28.03
2018-08-24T18:40:44.406Z,27.98
2018-08-24T18:43:10.341Z,27.80
2018-08-24T18:45:36.546Z,27.94
2018-08-24T18:48:02.503Z,28.02
2018-08-24T18:50:28.471Z,28.20
2018-08-24T18:52:54.439Z,28.06
2018-08-24T18:55:20.404Z,28.05
2018-08-24T18:57:46.395Z,28.22
2018-08-24T19:00:12.340Z,28.16
2018-08-24T19:02:38.278Z,27.83
2018-08-24T19:05:04.246Z,28.01
2018-08-24T19:07:30.234Z,28.15
2018-08-24T19:09:56.189Z,28.08
2018-08-24T19:12:22.173Z,28.05
2018-08-24T19:14:48.243Z,27.97
2018-08-24T19:17:14.170Z,27.90
2018-08-24T19:19:40.126Z,27.77
2018-08-24T19:22:06.109Z,27.84
2018-08-24T19:24:32.173Z,27.90
2018-08-24T19:26:58.056Z,27.86
2018-08-24T19:29:24.035Z,27.83
2018-08-24T19:31:50.080Z,27.58
2018-08-24T19:34:16.040Z,27.84
2018-08-24T19:36:42.032Z,27.67
2018-08-24T19:39:08.009Z,27.72
2018-08-24T19:41:33.984Z,27.74
2018-08-24T19:44:00.014Z,27.73
2018-08-24T19:46:25.909Z,27.73
2018-08-24T19:48:51.875Z,27.79
2018-08-24T19:51:18.920Z,27.85
2018-08-24T19:53:44.850Z,27.73
2018-08-24T19:56:10.833Z,27.77
2018-08-24T19:58:36.800Z,27.63
2018-08-24T20:01:02.772Z,27.59
2018-08-24T20:03:28.794Z,27.62
2018-08-24T20:05:54.738Z,27.58
2018-08-24T20:08:20.696Z,27.53
2018-08-24T20:10:46.667Z,27.32
2018-08-24T20:13:12.661Z,27.36
2018-08-24T20:15:38.642Z,27.57
2018-08-24T20:18:04.626Z,27.33
2018-08-24T20:20:31.692Z,27.23
2018-08-24T20:22:57.636Z,27.42
2018-08-24T20:25:23.590Z,27.56
2018-08-24T20:27:49.531Z,27.43
2018-08-24T20:30:15.485Z,27.44
2018-08-24T20:32:41.430Z,27.43
2018-08-24T20:35:07.374Z,27.42
2018-08-24T20:37:33.877Z,27.20
2018-08-24T20:39:59.885Z,27.07
2018-08-24T20:42:25.807Z,27.16
2018-08-24T20:44:51.765Z,27.11
2018-08-24T20:47:17.772Z,27.31
2018-08-24T20:49:49.137Z,27.24
2018-08-24T20:52:15.097Z,27.07
2018-08-24T20:54:41.053Z,27.37
2018-08-24T20:57:07.000Z,27.42
2018-08-24T20:59:32.936Z,27.29
2018-08-24T21:01:58.868Z,27.41
2018-08-24T21:04:24.878Z,27.43
2018-08-24T21:06:50.852Z,27.42
2018-08-24T21:09:16.861Z,27.48
2018-08-24T21:11:42.917Z,27.39
2018-08-24T21:14:08.882Z,27.42
2018-08-24T21:16:34.840Z,27.44
2018-08-24T21:19:00.822Z,27.28
2018-08-24T21:21:26.785Z,27.06
2018-08-24T21:23:52.751Z,27.09
2018-08-24T21:26:18.696Z,27.16
2018-08-24T21:28:44.672Z,27.31
2018-08-24T21:31:10.679Z,27.18
2018-08-24T21:33:36.629Z,26.86
2018-08-24T21:36:02.583Z,27.14
2018-08-24T21:38:28.545Z,27.14
2018-08-24T21:40:54.481Z,27.28
2018-08-24T21:43:20.454Z,27.06
2018-08-24T21:45:46.401Z,27.23
2018-08-24T21:48:12.374Z,27.21
2018-08-24T21:50:38.339Z,27.18
2018-08-24T21:53:04.297Z,27.03
2018-08-24T21:55:30.273Z,27.04
2018-08-24T21:57:56.344Z,27.25
2018-08-24T22:00:22.319Z,26.99
2018-08-24T22:02:48.240Z,26.92
2018-08-24T22:05:14.178Z,27.12
2018-08-24T22:07:40.108Z,27.09
2018-08-24T22:10:06.064Z,26.79
2018-08-24T22:12:32.007Z,26.77
2018-08-24T22:14:57.964Z,26.84
2018-08-24T22:17:23.912Z,26.65
2018-08-24T22:19:49.845Z,26.75
2018-08-24T22:22:15.796Z,26.77
2018-08-24T22:24:41.777Z,26.78
2018-08-24T22:27:07.712Z,27.04
2018-08-24T22:29:33.667Z,26.91
2018-08-24T22:31:59.596Z,26.77
2018-08-24T22:34:25.560Z,26.83
2018-08-24T22:36:51.500Z,27.10
2018-08-24T22:39:17.488Z,27.01
2018-08-24T22:41:43.416Z,26.71
2018-08-24T22:44:09.375Z,26.48
2018-08-24T22:46:35.332Z,26.76
2018-08-24T22:49:01.282Z,26.72
2018-08-24T22:51:27.230Z,26.60
2018-08-24T22:53:53.184Z,26.57
2018-08-24T22:56:19.112Z,26.42
2018-08-24T22:58:45.114Z,26.68
2018-08-24T23:01:11.046Z,26.76
2018-08-24T23:03:36.988Z,26.44
2018-08-24T23:06:02.943Z,26.55
2018-08-24T23:08:28.887Z,26.55
2018-08-24T23:10:54.832Z,26.42
2018-08-24T23:13:20.763Z,26.53
2018-08-24T23:15:46.695Z,26.54
2018-08-24T23:18:12.643Z,26.55
2018-08-24T23:20:38.612Z,26.49
2018-08-24T23:23:04.548Z,26.66
2018-08-24T23:25:30.480Z,26.85
2018-08-24T23:27:56.416Z,26.70
2018-08-24T23:30:22.379Z,26.59
2018-08-24T23:32:48.335Z,26.77
2018-08-24T23:35:14.287Z,26.80
2018-08-24T23:37:40.244Z,26.84
2018-08-24T23:40:06.176Z,26.91
2018-08-24T23:42:32.100Z,26.70
2018-08-24T23:44:58.032Z,26.60
2018-08-24T23:47:23.983Z,26.70
2018-08-24T23:49:49.937Z,26.55
2018-08-24T23:52:15.889Z,26.47
2018-08-24T23:54:41.860Z,26.20
2018-08-24T23:57:07.808Z,26.16
2018-08-24T23:59:33.751Z,26.26
